Time;durP1;ratioP1;P1;durP2;ratioP2;P2;SDS_P1;SDS_P2;PMS_P1;PMS_P2;Temp;Humidity;BMP_temperature;BMP_pressure;BME280_temperature;BME280_humidity;BME280_pressure;Samples;Min_cycle;Max_cycle;Signal;HPM_P1;HPM_P2
2021/11/07 00:08:37;;;;;;;62.22;26.45;;;;;;;2.94;72.78;99159.66;5054329;28;20047;-68
2021/11/07 00:11:07;;;;;;;43.80;21.13;;;;;;;2.91;73.17;99154.69;5037601;28;20021;-67
2021/11/07 00:13:33;;;;;;;;;;;;;;;2.91;73.12;99152.81;5021555;28;20349;-67
2021/11/07 00:16:05;;;;;;;35.17;16.88;;;;;;;2.90;73.17;99150.34;5022371;28;19920;-68
2021/11/07 00:18:45;;;;;;;31.95;16.88;;;;;;;2.86;73.32;99143.72;5026836;28;20084;-68
2021/11/07 00:21:18;;;;;;;34.47;19.20;;;;;;;2.85;73.75;99147.50;5027914;28;20057;-67
2021/11/07 00:26:25;;;;;;;29.65;15.52;;;;;;;2.89;73.71;99152.22;5028833;28;20131;-66
2021/11/07 00:28:55;;;;;;;30.00;15.73;;;;;;;2.89;73.39;99146.81;5028793;28;20215;-66
2021/11/07 00:36:48;;;;;;;33.60;19.35;;;;;;;2.83;73.17;99131.47;5018646;28;20688;-67
2021/11/07 00:47:12;;;;;;;34.60;18.77;;;;;;;2.84;73.27;99116.88;5026973;28;20592;-67
2021/11/07 00:49:40;;;;;;;32.33;16.05;;;;;;;2.83;73.69;99110.63;5027754;28;20374;-67
2021/11/07 01:02:38;;;;;;;31.83;15.80;;;;;;;2.80;73.82;99084.00;5041895;28;20692;-66
2021/11/07 01:05:15;;;;;;;35.83;18.38;;;;;;;2.81;73.02;99091.06;5047971;28;20043;-67
2021/11/07 01:07:41;;;;;;;30.92;16.25;;;;;;;2.80;73.08;99089.41;5051236;28;20029;-67
2021/11/07 01:10:07;;;;;;;27.58;16.30;;;;;;;2.81;74.26;99087.53;5050860;28;20037;-67
2021/11/07 01:12:34;;;;;;;28.63;14.95;;;;;;;2.77;73.34;99075.50;5051023;28;20021;-66
2021/11/07 01:14:59;;;;;;;28.70;15.80;;;;;;;2.77;73.65;99087.16;5051109;28;20049;-67
2021/11/07 01:17:25;;;;;;;28.73;15.80;;;;;;;2.75;73.87;99080.31;5050674;28;20504;-67
2021/11/07 01:19:55;;;;;;;28.17;15.43;;;;;;;2.73;73.60;99077.84;5051029;28;20477;-66
2021/11/07 01:22:29;;;;;;;33.67;18.27;;;;;;;2.77;73.93;99081.75;5049668;28;20025;-68
2021/11/07 01:24:59;;;;;;;45.03;19.75;;;;;;;2.82;73.56;99081.03;5050336;28;20021;-67
2021/11/07 01:27:33;;;;;;;30.33;17.77;;;;;;;2.84;74.62;99084.34;5047932;28;20025;-67
2021/11/07 01:30:01;;;;;;;25.77;14.35;;;;;;;2.87;73.69;99070.34;5050619;28;20115;-67
2021/11/07 01:32:27;;;;;;;29.58;17.00;;;;;;;2.90;74.14;99055.50;5049766;28;20025;-67
2021/11/07 01:37:21;;;;;;;31.08;17.95;;;;;;;2.92;73.93;99077.78;5050439;28;20392;-66
2021/11/07 01:45:49;;;;;;;25.85;14.80;;;;;;;2.91;73.78;99073.41;5032322;28;20057;-68
2021/11/07 01:48:19;;;;;;;45.30;20.40;;;;;;;2.92;74.24;99062.34;5046865;28;20041;-68
2021/11/07 01:50:56;;;;;;;43.47;19.25;;;;;;;2.92;74.65;99054.22;5050845;28;20021;-67
2021/11/07 01:53:29;;;;;;;29.10;15.55;;;;;;;2.93;74.27;99044.19;5050135;28;20513;-68
2021/11/07 01:56:02;;;;;;;27.98;14.65;;;;;;;2.94;74.34;99043.97;5048875;28;20017;-67
2021/11/07 01:58:29;;;;;;;25.33;13.30;;;;;;;2.96;74.79;99036.44;5049129;28;20040;-68
2021/11/07 02:00:54;;;;;;;23.88;14.07;;;;;;;2.96;74.35;99028.31;5048947;28;20384;-67
2021/11/07 02:03:21;;;;;;;35.45;17.23;;;;;;;2.97;74.12;99039.97;5049479;28;20037;-66
2021/11/07 02:05:47;;;;;;;35.78;17.58;;;;;;;2.96;74.91;99033.75;5049858;28;20044;-67
2021/11/07 02:08:13;;;;;;;27.63;14.48;;;;;;;2.98;74.75;99030.78;5049430;28;20029;-66
2021/11/07 02:10:41;;;;;;;26.50;13.85;;;;;;;2.97;74.86;99029.97;5048948;28;20025;-66
2021/11/07 02:13:07;;;;;;;28.52;15.88;;;;;;;2.97;74.97;99016.44;5049578;28;20107;-64
2021/11/07 02:15:33;;;;;;;23.55;13.38;;;;;;;2.96;74.84;99005.81;5048370;28;20477;-65
2021/11/07 02:17:58;;;;;;;23.27;12.90;;;;;;;2.95;74.62;99015.84;5048462;28;20021;-65
2021/11/07 02:20:29;;;;;;;23.65;13.13;;;;;;;2.94;74.26;99014.19;5050867;28;20017;-65
2021/11/07 02:22:56;;;;;;;20.42;12.05;;;;;;;2.91;74.95;99009.22;5049512;28;20562;-65
2021/11/07 02:25:21;;;;;;;21.88;13.50;;;;;;;2.91;74.53;99001.09;5048764;28;20032;-66
2021/11/07 02:27:47;;;;;;;21.00;12.45;;;;;;;2.93;74.68;99006.28;5048963;28;20033;-65
2021/11/07 02:30:14;;;;;;;23.90;12.50;;;;;;;2.91;74.48;99002.97;5048775;28;20496;-64
2021/11/07 02:32:45;;;;;;;20.02;11.65;;;;;;;2.90;74.52;99004.88;5050332;28;20036;-64
2021/11/07 02:35:11;;;;;;;18.45;10.55;;;;;;;2.90;74.32;98995.91;5045946;28;20167;-64
2021/11/07 02:37:37;;;;;;;21.02;12.07;;;;;;;2.92;74.91;99002.75;5049130;28;20064;-66
2021/11/07 02:40:07;;;;;;;17.75;10.82;;;;;;;2.93;74.80;98995.44;5048706;28;20029;-66
2021/11/07 02:42:34;;;;;;;18.83;10.85;;;;;;;2.96;74.71;99001.22;5050479;28;20035;-65
2021/11/07 02:45:01;;;;;;;20.50;10.82;;;;;;;2.98;75.01;98995.56;5050793;28;20028;-66
2021/11/07 02:47:27;;;;;;;19.70;10.68;;;;;;;2.98;75.23;98993.69;5050000;28;20033;-65
2021/11/07 02:49:52;;;;;;;19.67;11.48;;;;;;;3.00;75.09;98988.03;5049810;28;20074;-65
2021/11/07 02:52:18;;;;;;;16.98;10.18;;;;;;;2.98;74.80;98988.28;5049724;28;20035;-65
2021/11/07 02:54:44;;;;;;;16.42;10.07;;;;;;;2.98;74.98;98985.56;5050265;28;20103;-65
2021/11/07 02:57:12;;;;;;;16.45;9.75;;;;;;;3.00;74.50;98989.94;5049243;28;20550;-66
2021/11/07 02:59:40;;;;;;;19.40;11.23;;;;;;;3.03;75.16;98978.63;5045738;28;20060;-65
2021/11/07 03:02:08;;;;;;;18.00;11.55;;;;;;;3.03;75.09;98971.31;5049955;28;20163;-65
2021/11/07 03:04:34;;;;;;;19.88;11.50;;;;;;;3.04;74.72;98980.28;5050498;28;20021;-65
2021/11/07 03:07:00;;;;;;;19.67;11.55;;;;;;;3.04;74.72;98974.84;5048690;28;20044;-65
2021/11/07 03:09:28;;;;;;;17.77;10.55;;;;;;;3.02;74.38;98977.78;5049722;28;20052;-64
2021/11/07 03:11:56;;;;;;;23.15;13.75;;;;;;;3.02;74.69;98974.25;5050052;28;20029;-65
2021/11/07 03:14:25;;;;;;;25.25;14.30;;;;;;;3.03;74.61;98976.72;5048026;28;20025;-65
2021/11/07 03:16:51;;;;;;;22.05;11.70;;;;;;;3.02;74.16;98969.66;5049590;28;20385;-66
2021/11/07 03:19:20;;;;;;;18.90;11.77;;;;;;;3.00;73.80;98966.34;5047788;28;20126;-67
2021/11/07 03:21:45;;;;;;;21.05;11.65;;;;;;;3.03;74.16;98963.16;5048702;28;20017;-65
2021/11/07 03:24:13;;;;;;;20.75;11.30;;;;;;;3.05;74.13;98971.09;5048299;28;20028;-65
2021/11/07 03:26:39;;;;;;;16.73;10.13;;;;;;;3.05;74.06;98957.53;5047366;28;20035;-64
2021/11/07 03:29:07;;;;;;;18.27;10.15;;;;;;;3.03;75.05;98963.16;5046918;28;20473;-65
2021/11/07 03:34:06;;;;;;;19.27;10.98;;;;;;;3.03;74.22;98965.06;5047467;28;20052;-65
2021/11/07 03:36:43;;;;;;;19.92;11.52;;;;;;;3.04;74.38;98967.53;5047982;28;20396;-65
2021/11/07 03:39:10;;;;;;;18.90;10.57;;;;;;;3.05;74.89;98968.38;5046775;28;20012;-65
2021/11/07 03:41:36;;;;;;;16.00;9.32;;;;;;;3.07;74.79;98972.47;5046775;28;20492;-64
2021/11/07 03:44:01;;;;;;;18.02;10.40;;;;;;;3.07;75.01;98966.22;5046423;28;20033;-65
2021/11/07 03:46:26;;;;;;;17.40;10.10;;;;;;;3.07;74.67;98963.50;5047725;28;20100;-65
2021/11/07 03:48:52;;;;;;;17.17;9.77;;;;;;;3.04;74.07;98967.53;5047302;28;20035;-65
2021/11/07 03:51:18;;;;;;;18.30;9.82;;;;;;;3.04;74.86;98964.81;5048077;28;20029;-65
2021/11/07 03:53:43;;;;;;;17.55;10.27;;;;;;;3.03;74.00;98955.03;5047845;28;20025;-65
2021/11/07 03:56:09;;;;;;;18.38;9.40;;;;;;;3.01;73.97;98949.03;5048051;28;20025;-65
2021/11/07 03:58:35;;;;;;;17.48;9.73;;;;;;;3.02;74.31;98939.84;5047719;28;20032;-65
2021/11/07 04:01:00;;;;;;;14.77;8.93;;;;;;;3.04;74.01;98936.91;5047578;28;20029;-64
2021/11/07 04:03:26;;;;;;;16.52;9.55;;;;;;;3.06;74.53;98934.75;5046457;28;20028;-65
2021/11/07 04:05:51;;;;;;;14.15;7.28;;;;;;;3.06;74.49;98927.47;5046131;28;20530;-65
2021/11/07 04:08:17;;;;;;;16.23;9.27;;;;;;;3.06;74.53;98913.94;5047592;28;20036;-63
2021/11/07 04:10:42;;;;;;;12.23;7.47;;;;;;;3.07;74.03;98912.03;5047384;28;20049;-64
2021/11/07 04:13:08;;;;;;;18.15;8.85;;;;;;;3.07;74.17;98912.03;5047714;28;20023;-66
2021/11/07 04:15:34;;;;;;;13.38;7.90;;;;;;;3.07;73.91;98906.59;5047763;28;20025;-66
2021/11/07 04:18:01;;;;;;;13.93;8.30;;;;;;;3.06;74.22;98897.66;5047619;28;20032;-65
2021/11/07 04:20:27;;;;;;;13.73;7.82;;;;;;;3.04;74.31;98888.13;5047477;28;20032;-65
2021/11/07 04:22:53;;;;;;;15.02;10.43;;;;;;;3.05;74.54;98890.59;5049025;28;20135;-66
2021/11/07 04:25:18;;;;;;;16.95;10.43;;;;;;;3.06;73.53;98885.97;5048635;28;20033;-65
2021/11/07 04:27:44;;;;;;;15.13;10.02;;;;;;;3.05;74.30;98887.06;5048768;28;20036;-64
2021/11/07 04:30:10;;;;;;;15.43;9.75;;;;;;;3.07;73.58;98877.63;5048879;28;20025;-65
2021/11/07 04:32:36;;;;;;;14.00;8.73;;;;;;;3.05;73.19;98863.50;5049594;28;20047;-65
2021/11/07 04:35:03;;;;;;;13.80;8.05;;;;;;;3.05;74.23;98851.84;5047645;28;20041;-64
2021/11/07 04:37:28;;;;;;;14.75;8.63;;;;;;;3.02;74.14;98855.84;5051504;28;20013;-65
2021/11/07 04:39:54;;;;;;;13.43;8.63;;;;;;;3.01;74.26;98845.25;5052286;28;20032;-65
2021/11/07 04:42:20;;;;;;;12.13;7.00;;;;;;;3.01;74.44;98846.06;5052700;28;20031;-64
2021/11/07 04:44:45;;;;;;;14.32;8.00;;;;;;;3.01;74.57;98842.53;5052084;28;20037;-65
2021/11/07 04:47:11;;;;;;;13.50;8.40;;;;;;;2.99;74.11;98840.03;5051140;28;20036;-65
2021/11/07 04:49:37;;;;;;;17.70;9.50;;;;;;;3.00;73.88;98841.69;5052369;28;20060;-65
2021/11/07 04:52:03;;;;;;;16.00;9.75;;;;;;;3.01;73.87;98843.34;5052237;28;20099;-65
2021/11/07 04:54:30;;;;;;;14.65;8.88;;;;;;;3.01;73.36;98840.63;5052074;28;20035;-64
2021/11/07 04:56:56;;;;;;;15.65;8.88;;;;;;;3.01;74.18;98831.69;5051752;28;20028;-64
2021/11/07 04:59:22;;;;;;;14.00;8.02;;;;;;;3.02;73.59;98825.22;5052095;28;20079;-65
2021/11/07 05:01:48;;;;;;;16.00;9.85;;;;;;;3.06;74.41;98820.94;5050195;28;20420;-65
2021/11/07 05:04:14;;;;;;;13.73;8.60;;;;;;;3.04;73.82;98815.78;5051738;28;20029;-65
2021/11/07 05:06:39;;;;;;;13.82;8.80;;;;;;;3.05;73.76;98811.19;5052042;28;20036;-65
2021/11/07 05:09:05;;;;;;;15.30;9.90;;;;;;;3.07;74.35;98814.47;5051852;28;20060;-65
2021/11/07 05:11:31;;;;;;;13.55;8.05;;;;;;;3.10;73.85;98806.69;5051674;28;20834;-66
2021/11/07 05:13:56;;;;;;;15.43;8.43;;;;;;;3.09;73.97;98801.50;5052172;28;20058;-66
2021/11/07 05:16:22;;;;;;;13.93;8.07;;;;;;;3.08;73.43;98797.13;5051719;28;20100;-65
2021/11/07 05:18:48;;;;;;;14.15;8.25;;;;;;;3.09;73.57;98799.63;5051554;28;20025;-66
2021/11/07 05:21:13;;;;;;;11.65;7.85;;;;;;;3.07;73.67;98804.47;5051625;28;20021;-65
2021/11/07 05:23:39;;;;;;;16.00;8.93;;;;;;;3.06;73.44;98812.81;5052043;28;20637;-65
2021/11/07 05:26:04;;;;;;;14.23;8.63;;;;;;;3.01;74.04;98797.28;5050216;28;20124;-65
2021/11/07 05:28:32;;;;;;;14.07;8.90;;;;;;;3.00;73.96;98792.91;5051837;28;20033;-65
2021/11/07 05:30:58;;;;;;;15.77;9.57;;;;;;;3.02;74.23;98795.41;5051644;28;20047;-66
2021/11/07 05:33:24;;;;;;;14.85;9.05;;;;;;;3.00;73.75;98787.50;5051233;28;20489;-65
2021/11/07 05:35:49;;;;;;;16.65;9.57;;;;;;;3.01;74.45;98802.69;5051739;28;20105;-65
2021/11/07 05:38:15;;;;;;;15.15;8.80;;;;;;;3.02;73.78;98796.22;5051878;28;20108;-65
2021/11/07 05:40:40;;;;;;;14.65;8.25;;;;;;;3.03;73.82;98786.22;5051346;28;20507;-65
2021/11/07 05:43:06;;;;;;;15.10;8.90;;;;;;;3.04;74.24;98783.25;5051463;28;20106;-66
2021/11/07 05:45:31;;;;;;;14.75;8.95;;;;;;;3.08;74.16;98783.59;5049857;28;20520;-65
2021/11/07 05:47:57;;;;;;;13.98;8.88;;;;;;;3.06;73.58;98786.56;5051320;28;20021;-65
2021/11/07 05:50:23;;;;;;;14.90;9.13;;;;;;;3.06;73.96;98778.44;5051474;28;20029;-65
2021/11/07 05:52:49;;;;;;;18.73;11.32;;;;;;;3.06;73.51;98769.44;5048740;28;20108;-65
2021/11/07 05:55:15;;;;;;;15.98;10.02;;;;;;;3.05;74.18;98765.94;5051179;28;20528;-65
2021/11/07 05:57:42;;;;;;;17.00;10.90;;;;;;;3.05;73.60;98768.66;5050775;28;20025;-65
2021/11/07 06:00:09;;;;;;;16.98;10.50;;;;;;;3.06;73.98;98772.16;5051264;28;20104;-65
2021/11/07 06:02:35;;;;;;;17.23;10.75;;;;;;;3.05;73.99;98765.94;5051148;28;20017;-66
2021/11/07 06:05:00;;;;;;;17.35;10.85;;;;;;;3.05;73.98;98765.13;5051189;28;20028;-66
2021/11/07 06:07:26;;;;;;;14.40;9.57;;;;;;;3.04;73.77;98763.47;5050605;28;20074;-66
2021/11/07 06:09:51;;;;;;;18.60;9.95;;;;;;;3.04;73.62;98763.47;5051433;28;20579;-65
2021/11/07 06:12:17;;;;;;;16.77;9.00;;;;;;;3.07;73.51;98773.81;5049747;28;20030;-66
2021/11/07 06:14:44;;;;;;;16.63;9.10;;;;;;;3.05;73.18;98773.25;5050754;28;20091;-65
2021/11/07 06:17:10;;;;;;;20.20;11.13;;;;;;;3.06;74.17;98764.88;5049918;28;20104;-65
2021/11/07 06:19:35;;;;;;;16.52;9.50;;;;;;;3.06;73.67;98774.88;5049195;28;20111;-65
2021/11/07 06:22:01;;;;;;;17.70;10.05;;;;;;;3.08;74.38;98773.59;5050786;28;20070;-65
2021/11/07 06:24:28;;;;;;;16.75;8.68;;;;;;;3.08;74.05;98780.88;5050879;28;20017;-65
2021/11/07 06:26:56;;;;;;;16.50;10.73;;;;;;;3.11;73.75;98780.41;5050489;28;20100;-65
2021/11/07 06:29:22;;;;;;;17.75;10.48;;;;;;;3.13;74.38;98772.88;5050041;28;20393;-65
2021/11/07 06:31:52;;;;;;;16.77;10.00;;;;;;;3.18;74.17;98774.88;5049118;28;20028;-65
2021/11/07 06:34:18;;;;;;;;;;;;;;;3.24;74.36;98768.50;5048856;28;20386;-64
2021/11/07 06:36:45;;;;;;;22.67;12.38;;;;;;;3.29;74.15;98763.16;5050082;28;19927;-65
2021/11/07 06:39:10;;;;;;;18.50;11.25;;;;;;;3.34;74.38;98762.44;5050652;28;20033;-64
2021/11/07 06:41:36;;;;;;;18.95;11.00;;;;;;;3.42;74.18;98765.59;5050206;28;20037;-65
2021/11/07 06:44:01;;;;;;;18.73;11.48;;;;;;;3.51;73.35;98757.88;5050572;28;20120;-65
2021/11/07 06:46:27;;;;;;;18.70;11.25;;;;;;;3.61;73.76;98756.44;5048792;28;20062;-65
2021/11/07 06:48:53;;;;;;;19.40;11.07;;;;;;;3.73;73.74;98749.06;5050204;28;20029;-64
2021/11/07 06:51:20;;;;;;;19.08;10.68;;;;;;;3.87;73.82;98750.38;5050270;28;20492;-65
2021/11/07 06:53:45;;;;;;;20.75;11.90;;;;;;;3.98;73.57;98732.41;5050365;28;20425;-64
2021/11/07 06:56:11;;;;;;;17.63;9.75;;;;;;;4.09;73.02;98735.25;5050018;28;20094;-65
2021/11/07 06:58:36;;;;;;;20.08;10.77;;;;;;;4.19;73.45;98724.56;5049028;28;20033;-65
2021/11/07 07:01:02;;;;;;;18.88;10.20;;;;;;;4.31;73.05;98722.59;5049785;28;20028;-64
2021/11/07 07:03:28;;;;;;;19.40;10.32;;;;;;;4.44;72.92;98720.63;5049991;28;20219;-64
2021/11/07 07:05:54;;;;;;;16.38;9.23;;;;;;;4.56;72.62;98709.63;5050259;28;20016;-65
2021/11/07 07:08:23;;;;;;;17.73;10.85;;;;;;;4.64;72.68;98701.06;5049968;28;20033;-64
2021/11/07 07:11:02;;;;;;;15.23;9.27;;;;;;;4.73;72.51;98704.16;5049586;28;20025;-65
2021/11/07 07:13:35;;;;;;;20.25;10.27;;;;;;;4.83;71.78;98696.13;5049857;28;20481;-65
2021/11/07 07:16:28;;;;;;;17.55;10.05;;;;;;;4.91;71.79;98689.44;5050204;28;20045;-65
2021/11/07 07:21:37;;;;;;;19.45;12.35;;;;;;;5.12;71.64;98684.22;5050050;28;20481;-65
2021/11/07 07:34:25;;;;;;;18.10;11.27;;;;;;;5.35;70.45;98697.53;5049217;28;20052;-64
2021/11/07 07:36:52;;;;;;;15.95;9.45;;;;;;;5.42;70.46;98697.31;5051534;28;20484;-64
2021/11/07 07:39:18;;;;;;;16.85;10.00;;;;;;;5.51;69.70;98714.84;5051586;28;20579;-64
2021/11/07 07:41:44;;;;;;;17.73;10.43;;;;;;;5.61;69.90;98726.91;5051638;28;20021;-65
2021/11/07 07:44:10;;;;;;;18.27;10.90;;;;;;;5.68;70.20;98719.38;5051666;28;20032;-66
2021/11/07 07:46:40;;;;;;;18.33;10.13;;;;;;;5.77;69.99;98695.22;5051213;28;20103;-65
2021/11/07 07:49:06;;;;;;;16.70;10.45;;;;;;;5.91;69.29;98684.72;5049816;28;20029;-65
2021/11/07 07:51:32;;;;;;;15.68;9.30;;;;;;;5.97;69.03;98686.41;5050753;28;20025;-65
2021/11/07 07:54:01;;;;;;;15.60;9.60;;;;;;;6.02;68.97;98683.75;5051284;28;20029;-65
2021/11/07 07:56:27;;;;;;;16.38;9.40;;;;;;;6.09;67.82;98672.63;5050921;28;20021;-65
2021/11/07 07:58:53;;;;;;;17.90;10.30;;;;;;;6.08;68.19;98669.09;5051241;28;20020;-66
2021/11/07 08:01:19;;;;;;;18.35;10.00;;;;;;;6.06;68.63;98663.09;5049508;28;20500;-65
2021/11/07 08:03:44;;;;;;;14.80;9.27;;;;;;;6.05;68.61;98650.56;5050142;28;20091;-66
2021/11/07 08:06:10;;;;;;;14.52;9.05;;;;;;;6.09;68.04;98672.63;5050909;28;20029;-68
2021/11/07 08:08:35;;;;;;;17.52;9.82;;;;;;;6.12;68.48;98680.28;5051091;28;20037;-67
2021/11/07 08:11:01;;;;;;;16.25;8.98;;;;;;;6.18;68.17;98668.34;5054441;28;20039;-67
2021/11/07 08:13:27;;;;;;;13.52;8.27;;;;;;;6.23;67.63;98665.66;5054903;28;20355;-67
2021/11/07 08:15:53;;;;;;;17.83;9.15;;;;;;;6.24;67.91;98664.56;5055219;28;20051;-67
2021/11/07 08:18:18;;;;;;;14.32;8.80;;;;;;;6.31;67.72;98658.06;5054678;28;20029;-67
2021/11/07 08:20:46;;;;;;;12.95;8.30;;;;;;;6.36;67.49;98650.75;5057051;28;20036;-66
2021/11/07 08:23:11;;;;;;;15.60;8.95;;;;;;;6.44;67.37;98646.69;5049880;28;20025;-66
2021/11/07 08:25:37;;;;;;;14.82;9.07;;;;;;;6.56;66.76;98649.19;5054259;28;20025;-67
2021/11/07 08:28:05;;;;;;;13.95;7.88;;;;;;;6.69;65.95;98643.28;5052987;28;20455;-67
2021/11/07 08:30:39;;;;;;;13.25;7.25;;;;;;;6.81;66.87;98651.22;5053345;28;20021;-67
2021/11/07 08:33:06;;;;;;;14.95;9.15;;;;;;;6.93;66.60;98636.53;5054047;28;20045;-66
2021/11/07 08:35:33;;;;;;;16.48;9.20;;;;;;;7.07;65.43;98640.41;5054574;28;20029;-66
2021/11/07 08:38:06;;;;;;;14.88;9.35;;;;;;;7.13;65.59;98624.88;5054361;28;20120;-68
2021/11/07 08:40:44;;;;;;;15.68;9.13;;;;;;;7.19;65.24;98614.78;5054344;28;20047;-67
2021/11/07 09:02:36;;;;;;;13.77;7.68;;;;;;;7.13;63.82;98590.22;5039306;28;20054;-67
2021/11/07 09:10:11;;;;;;;13.60;6.72;;;;;;;7.51;62.96;98595.44;5052513;28;20037;-67
2021/11/07 09:12:38;;;;;;;11.20;7.10;;;;;;;7.71;63.21;98600.09;5052264;28;20021;-67
2021/11/07 09:15:05;;;;;;;10.70;6.53;;;;;;;7.87;62.79;98584.50;5050897;28;20021;-67
2021/11/07 09:17:31;;;;;;;13.18;7.53;;;;;;;8.07;62.64;98579.28;5048286;28;20488;-67
2021/11/07 09:19:58;;;;;;;13.77;7.80;;;;;;;8.24;61.82;98585.25;5051113;28;20017;-67
2021/11/07 09:25:16;;;;;;;14.45;7.72;;;;;;;8.44;61.13;98578.91;5051204;28;20051;-67
2021/11/07 09:30:07;;;;;;;12.77;7.80;;;;;;;8.66;60.52;98574.19;5051047;28;20037;-67
2021/11/07 09:37:45;;;;;;;15.18;8.38;;;;;;;9.09;60.21;98560.81;5049852;28;20033;-69
2021/11/07 09:40:13;;;;;;;17.58;9.77;;;;;;;9.14;60.17;98554.50;5050766;28;20023;-68
2021/11/07 09:47:41;;;;;;;13.85;8.88;;;;;;;9.03;59.83;98545.53;5049290;28;20036;-68
2021/11/07 09:50:11;;;;;;;16.52;9.80;;;;;;;9.08;60.19;98538.09;5046763;28;20045;-67
2021/11/07 09:52:41;;;;;;;19.40;9.75;;;;;;;9.17;59.64;98527.38;5050114;28;20013;-67
2021/11/07 09:55:08;;;;;;;23.35;12.05;;;;;;;9.22;59.78;98516.38;5049104;28;20028;-67
2021/11/07 09:57:34;;;;;;;23.13;12.27;;;;;;;9.33;59.58;98517.13;5048202;28;20028;-67
2021/11/07 10:00:04;;;;;;;11.93;8.10;;;;;;;9.40;58.89;98505.84;5049389;28;20029;-68
2021/11/07 10:02:32;;;;;;;16.65;10.30;;;;;;;9.42;59.22;98503.63;5049762;28;20029;-68
2021/11/07 10:04:59;;;;;;;24.00;14.60;;;;;;;9.45;59.95;98491.28;5049802;28;20481;-67
2021/11/07 10:07:31;;;;;;;26.45;15.23;;;;;;;9.51;59.67;98492.88;5050220;28;20119;-67
2021/11/07 10:10:03;;;;;;;14.73;8.95;;;;;;;9.52;58.73;98492.59;5049204;28;20047;-68
2021/11/07 10:12:37;;;;;;;22.85;13.65;;;;;;;9.39;58.53;98485.06;5050027;28;20025;-68
2021/11/07 10:15:09;;;;;;;14.98;8.60;;;;;;;9.27;58.17;98481.88;5049961;28;20029;-68
2021/11/07 10:17:46;;;;;;;26.83;15.20;;;;;;;9.24;59.52;98483.28;5047229;28;20037;-68
2021/11/07 10:23:01;;;;;;;26.00;14.88;;;;;;;9.11;59.20;98478.44;5049574;28;20025;-68
2021/11/07 10:25:37;;;;;;;19.45;12.15;;;;;;;9.02;59.04;98465.38;5049934;28;20107;-68
2021/11/07 10:28:13;;;;;;;20.60;13.65;;;;;;;8.95;59.32;98459.44;5048878;28;20550;-68
2021/11/07 10:30:44;;;;;;;16.35;11.32;;;;;;;8.87;59.39;98458.09;5047596;28;20025;-66
2021/11/07 10:33:54;;;;;;;16.40;9.70;;;;;;;8.81;59.47;98451.03;5048396;28;20047;-68
2021/11/07 10:39:42;;;;;;;14.27;8.35;;;;;;;8.70;59.33;98444.03;5049558;28;20074;-68
2021/11/07 10:45:05;;;;;;;15.73;9.50;;;;;;;8.56;59.55;98432.91;5048336;28;20439;-67
2021/11/07 10:52:44;;;;;;;14.93;9.23;;;;;;;8.47;59.41;98424.44;5049214;28;20392;-66
2021/11/07 10:55:25;;;;;;;14.55;8.23;;;;;;;8.40;58.27;98411.09;5047470;28;20389;-67
2021/11/07 10:57:54;;;;;;;14.40;8.52;;;;;;;8.42;58.78;98386.22;5048643;28;20024;-66
2021/11/07 11:00:23;;;;;;;15.13;8.93;;;;;;;8.43;58.79;98385.94;5048288;28;20045;-66
2021/11/07 11:02:52;;;;;;;19.08;10.95;;;;;;;8.46;57.92;98385.38;5045292;28;20021;-66
2021/11/07 11:05:24;;;;;;;19.15;9.65;;;;;;;8.52;57.57;98391.66;5017264;28;20027;-66
2021/11/07 11:08:16;;;;;;;15.95;9.27;;;;;;;8.62;58.05;98380.66;5016132;28;20056;-66
2021/11/07 11:11:11;;;;;;;14.57;8.90;;;;;;;8.74;57.58;98382.22;5021769;28;20889;-66
2021/11/07 11:32:24;;;;;;;13.32;9.60;;;;;;;8.75;57.40;98387.38;5025082;28;20128;-67
2021/11/07 11:45:26;;;;;;;35.15;18.08;;;;;;;8.79;57.70;98360.25;5024280;28;20053;-64
2021/11/07 12:01:35;;;;;;;21.15;13.10;;;;;;;9.41;56.39;98332.28;5027181;28;20947;-67
2021/11/07 12:12:25;;;;;;;15.63;10.30;;;;;;;9.42;55.02;98311.19;5021422;28;20111;-67
2021/11/07 12:15:03;;;;;;;15.82;9.82;;;;;;;9.40;56.04;98306.03;5028572;28;20400;-68
2021/11/07 12:17:42;;;;;;;13.93;8.90;;;;;;;9.40;55.99;98303.28;5028060;28;20029;-67
2021/11/07 12:20:23;;;;;;;;;;;;;;;9.43;54.66;98299.97;5029321;28;20087;-67
2021/11/07 12:22:51;;;;;;;19.10;11.07;;;;;;;9.45;54.93;98296.94;5027382;28;19948;-68
2021/11/07 12:25:18;;;;;;;31.73;16.17;;;;;;;9.42;54.87;98298.34;5028366;28;20041;-68
2021/11/07 12:27:52;;;;;;;23.75;13.38;;;;;;;9.51;53.69;98291.13;5028826;28;20025;-69
2021/11/07 12:30:24;;;;;;;22.58;12.55;;;;;;;9.53;53.33;98286.16;5021151;28;20506;-69
2021/11/07 12:33:01;;;;;;;20.70;11.40;;;;;;;9.53;53.37;98274.38;5019456;28;20033;-69
2021/11/07 12:35:42;;;;;;;18.95;9.80;;;;;;;9.47;53.75;98270.91;5024228;28;20469;-69
2021/11/07 12:41:23;;;;;;;18.08;10.40;;;;;;;9.41;53.02;98263.88;5029818;28;20712;-68
2021/11/07 12:43:59;;;;;;;20.85;14.77;;;;;;;9.33;53.69;98254.38;5020368;28;20413;-67
2021/11/07 12:46:43;;;;;;;13.35;9.70;;;;;;;9.31;53.50;98245.66;5025320;28;20124;-67
2021/11/07 12:49:08;;;;;;;25.70;13.90;;;;;;;9.25;53.80;98249.56;5022329;28;20249;-67
2021/11/07 12:51:49;;;;;;;15.43;9.30;;;;;;;9.21;53.78;98254.78;5018015;28;20687;-67
2021/11/07 12:54:24;;;;;;;17.38;9.65;;;;;;;9.17;53.46;98252.94;5020219;28;20022;-67
2021/11/07 12:57:05;;;;;;;13.45;7.82;;;;;;;9.13;53.62;98241.78;5023363;28;20064;-67
2021/11/07 12:59:42;;;;;;;15.27;8.65;;;;;;;9.06;53.64;98244.84;5026824;28;20029;-68
2021/11/07 13:02:18;;;;;;;14.48;8.00;;;;;;;9.00;53.67;98237.78;5028049;28;20041;-68
2021/11/07 13:04:45;;;;;;;12.15;7.32;;;;;;;8.93;53.41;98229.16;5028552;28;20436;-68
2021/11/07 13:07:45;;;;;;;12.43;7.68;;;;;;;8.83;54.88;98230.06;5026793;28;20021;-67
2021/11/07 13:10:15;;;;;;;;;;;;;;;8.76;54.36;98246.81;5022287;28;20199;-66
2021/11/07 13:12:46;;;;;;;14.48;8.82;;;;;;;8.71;55.49;98235.13;5017214;28;19963;-67
2021/11/07 13:23:58;;;;;;;17.83;9.57;;;;;;;8.56;55.98;98231.44;5029424;28;20034;-65
2021/11/07 13:31:42;;;;;;;15.75;9.25;;;;;;;8.48;55.90;98226.56;5024347;28;20029;-64
2021/11/07 13:34:13;;;;;;;15.97;8.90;;;;;;;8.44;56.56;98226.34;5015093;28;20033;-66
2021/11/07 13:36:42;;;;;;;14.43;8.73;;;;;;;8.40;56.25;98224.44;5018878;28;20025;-64
2021/11/07 13:39:09;;;;;;;16.90;8.35;;;;;;;8.37;56.40;98219.56;5025912;28;20021;-66
2021/11/07 13:41:36;;;;;;;17.58;10.20;;;;;;;8.35;56.55;98217.91;5024991;28;20021;-64
2021/11/07 13:44:16;;;;;;;16.92;9.32;;;;;;;8.33;56.11;98225.63;5025580;28;20507;-65
2021/11/07 13:47:02;;;;;;;18.00;9.65;;;;;;;8.32;56.51;98220.44;5038094;28;20398;-65
2021/11/07 13:49:29;;;;;;;14.65;9.15;;;;;;;8.29;56.77;98221.00;5024960;28;20037;-65
2021/11/07 13:52:01;;;;;;;16.85;9.90;;;;;;;8.27;56.62;98215.84;5027028;28;20357;-65
2021/11/07 13:54:28;;;;;;;22.33;11.60;;;;;;;8.28;56.64;98212.00;5019552;28;20029;-65
2021/11/07 13:56:54;;;;;;;19.00;10.07;;;;;;;8.28;56.40;98211.16;5016944;28;20036;-65
2021/11/07 13:59:43;;;;;;;18.95;10.95;;;;;;;8.27;57.13;98212.28;5023270;28;20037;-66
2021/11/07 14:02:20;;;;;;;20.63;10.40;;;;;;;8.27;57.03;98215.84;5027164;28;20105;-65
2021/11/07 14:04:51;;;;;;;18.75;9.95;;;;;;;8.27;56.98;98213.09;5025523;28;20029;-65
2021/11/07 14:07:28;;;;;;;18.20;9.48;;;;;;;8.26;56.36;98205.19;5028544;28;20048;-65
2021/11/07 14:09:54;;;;;;;21.98;11.45;;;;;;;8.26;56.74;98196.97;5024494;28;20749;-65
2021/11/07 14:12:48;;;;;;;25.35;11.38;;;;;;;8.26;56.81;98189.63;5027524;28;20033;-65
2021/11/07 14:15:20;;;;;;;32.60;13.65;;;;;;;8.24;56.40;98188.25;5017485;28;20017;-65
2021/11/07 14:17:49;;;;;;;27.73;13.05;;;;;;;8.24;56.72;98191.81;5017079;28;20836;-65
2021/11/07 14:20:33;;;;;;;28.40;13.18;;;;;;;8.25;56.73;98187.97;5022987;28;20025;-65
2021/11/07 14:23:08;;;;;;;30.70;14.05;;;;;;;8.24;56.50;98191.00;5027013;28;20111;-66
2021/11/07 14:25:45;;;;;;;38.03;15.82;;;;;;;8.22;56.64;98191.28;5026716;28;20052;-65
2021/11/07 14:28:20;;;;;;;23.27;12.77;;;;;;;8.24;56.58;98191.00;5035084;28;20689;-65
2021/11/07 14:30:47;;;;;;;30.45;13.95;;;;;;;8.22;56.57;98194.03;5026358;28;20033;-66
2021/11/07 14:33:38;;;;;;;26.42;12.73;;;;;;;8.22;56.92;98193.19;5025702;28;20055;-66
2021/11/07 14:36:21;;;;;;;26.48;12.38;;;;;;;8.22;56.74;98185.00;5015310;28;20492;-65
2021/11/07 14:38:57;;;;;;;22.77;12.02;;;;;;;8.16;56.68;98195.16;5016854;28;20846;-65